Time;durP1;ratioP1;P1;durP2;ratioP2;P2;SDS_P1;SDS_P2;PMS_P1;PMS_P2;Temp;Humidity;BMP_temperature;BMP_pressure;BME280_temperature;BME280_humidity;BME280_pressure;Samples;Min_cycle;Max_cycle;Signal;HPM_P1;HPM_P2
2023/03/14 00:01:07;;;;;;;10.45;6.32;;;14.80;84.90;;;;;;6245909;23;20004;-76
2023/03/14 00:03:33;;;;;;;8.63;5.97;;;14.80;85.20;;;;;;6246644;23;20004;-76
2023/03/14 00:06:02;;;;;;;8.63;5.90;;;14.80;85.20;;;;;;6218627;23;20517;-76
2023/03/14 00:08:28;;;;;;;8.63;6.03;;;14.90;85.30;;;;;;6246641;23;20121;-76
2023/03/14 00:10:54;;;;;;;11.45;7.75;;;14.80;86.00;;;;;;6245612;23;20051;-75
2023/03/14 00:13:19;;;;;;;15.20;6.90;;;14.70;87.30;;;;;;6245788;23;20083;-75
2023/03/14 00:15:45;;;;;;;14.32;7.55;;;14.70;87.20;;;;;;6246014;23;20011;-76
2023/03/14 00:18:10;;;;;;;9.18;6.22;;;14.60;88.30;;;;;;6246200;23;20091;-76
2023/03/14 00:20:36;;;;;;;10.10;6.05;;;14.60;87.40;;;;;;6245160;23;20004;-75
2023/03/14 00:23:02;;;;;;;10.00;6.05;;;14.60;87.10;;;;;;6246348;23;20000;-76
2023/03/14 00:25:28;;;;;;;10.80;6.72;;;14.60;87.50;;;;;;6245891;23;20314;-76
2023/03/14 00:27:53;;;;;;;9.43;6.10;;;14.70;87.60;;;;;;6245621;23;20085;-76
2023/03/14 00:30:19;;;;;;;9.35;6.45;;;14.70;87.70;;;;;;6245980;23;20469;-76
2023/03/14 00:32:45;;;;;;;9.93;6.35;;;14.70;87.80;;;;;;6245239;23;20035;-76
2023/03/14 00:35:11;;;;;;;9.25;6.50;;;14.70;87.90;;;;;;6246326;23;20415;-75
2023/03/14 00:37:36;;;;;;;15.35;7.00;;;14.70;87.90;;;;;;6245508;23;20126;-75
2023/03/14 00:40:05;;;;;;;7.72;5.90;;;14.80;88.10;;;;;;6246420;23;20004;-75
2023/03/14 00:42:31;;;;;;;11.70;7.13;;;14.70;88.20;;;;;;6245523;23;20012;-76
2023/03/14 00:44:57;;;;;;;11.30;7.22;;;14.70;88.50;;;;;;6246261;23;20022;-75
2023/03/14 00:47:23;;;;;;;13.18;6.60;;;14.60;89.00;;;;;;6245731;23;20369;-75
2023/03/14 00:49:48;;;;;;;16.30;6.43;;;14.60;88.80;;;;;;6245436;23;20501;-76
2023/03/14 00:52:14;;;;;;;12.50;7.55;;;14.50;89.20;;;;;;6245257;23;20004;-75
2023/03/14 00:54:40;;;;;;;12.85;7.25;;;14.50;89.10;;;;;;6245894;23;20058;-75
2023/03/14 00:57:05;;;;;;;9.80;6.82;;;15.30;90.10;;;;;;6246021;23;20054;-75
2023/03/14 00:59:31;;;;;;;12.02;7.13;;;14.40;89.60;;;;;;6246111;23;20307;-76
2023/03/14 01:01:57;;;;;;;13.82;7.55;;;14.40;89.70;;;;;;6245376;23;20004;-75
2023/03/14 01:04:22;;;;;;;12.13;7.35;;;14.50;90.00;;;;;;6245932;23;20000;-76
2023/03/14 01:06:48;;;;;;;9.98;6.82;;;14.50;90.00;;;;;;6218578;23;20384;-75
2023/03/14 01:09:14;;;;;;;14.13;7.60;;;14.50;90.00;;;;;;6245748;23;20003;-75
2023/03/14 01:11:39;;;;;;;14.23;8.45;;;14.60;90.00;;;;;;6245550;23;20007;-76
2023/03/14 01:14:05;;;;;;;9.95;6.70;;;14.60;89.80;;;;;;6245414;23;19996;-76
2023/03/14 01:16:33;;;;;;;13.15;7.78;;;14.60;90.00;;;;;;6245441;23;20000;-76
2023/03/14 01:18:59;;;;;;;11.52;7.05;;;14.60;90.00;;;;;;6245270;23;20003;-75
2023/03/14 01:21:31;;;;;;;10.07;6.55;;;14.60;90.00;;;;;;6245176;23;20004;-76
2023/03/14 01:23:58;;;;;;;12.30;7.05;;;14.60;90.10;;;;;;6244215;23;20039;-75
2023/03/14 01:26:25;;;;;;;12.55;7.63;;;14.60;90.10;;;;;;6245082;23;19996;-76
2023/03/14 01:28:54;;;;;;;16.20;7.72;;;14.60;90.20;;;;;;6244543;23;20040;-75
2023/03/14 01:31:19;;;;;;;13.90;7.55;;;14.50;90.20;;;;;;6245065;23;20011;-76
2023/03/14 01:33:45;;;;;;;10.48;6.68;;;14.50;90.10;;;;;;6245448;23;20028;-76
2023/03/14 01:36:12;;;;;;;13.43;6.25;;;14.50;90.10;;;;;;6218622;23;20011;-75
2023/03/14 01:38:39;;;;;;;12.52;7.15;;;14.50;90.10;;;;;;6244967;23;20008;-76
2023/03/14 01:41:06;;;;;;;11.32;6.72;;;14.50;90.10;;;;;;6245002;23;20019;-76
2023/03/14 01:43:31;;;;;;;9.15;6.38;;;14.60;90.20;;;;;;6244791;23;20000;-76
2023/03/14 01:46:06;;;;;;;13.07;6.65;;;14.60;90.00;;;;;;6244871;23;19996;-76
2023/03/14 01:48:40;;;;;;;13.18;7.18;;;14.60;90.20;;;;;;6245380;23;19996;-75
2023/03/14 01:51:10;;;;;;;10.10;6.15;;;14.60;90.20;;;;;;6245586;23;20000;-75
2023/03/14 01:53:39;;;;;;;11.57;6.30;;;14.60;90.10;;;;;;6245317;23;20294;-75
2023/03/14 01:56:06;;;;;;;11.32;7.70;;;14.60;90.10;;;;;;6245162;23;20004;-76
2023/03/14 01:58:36;;;;;;;11.00;6.05;;;14.50;90.20;;;;;;6245453;23;20011;-76
2023/03/14 02:01:04;;;;;;;8.85;6.13;;;14.50;90.10;;;;;;6244140;23;20055;-76
2023/03/14 02:03:34;;;;;;;11.60;6.18;;;14.50;90.20;;;;;;6244871;23;20004;-76
2023/03/14 02:06:06;;;;;;;14.57;6.65;;;14.50;90.30;;;;;;6245176;23;20000;-76
2023/03/14 02:08:33;;;;;;;8.88;5.47;;;14.40;90.30;;;;;;6244934;23;20000;-76
2023/03/14 02:10:58;;;;;;;9.27;5.63;;;14.50;90.20;;;;;;6245082;23;20012;-76
2023/03/14 02:13:24;;;;;;;9.40;5.32;;;14.40;90.50;;;;;;6245232;23;20004;-76
2023/03/14 02:15:50;;;;;;;8.95;5.38;;;14.50;90.20;;;;;;6245075;23;20445;-76
2023/03/14 02:18:16;;;;;;;10.80;6.55;;;14.50;90.30;;;;;;6245345;23;20419;-76
2023/03/14 02:20:51;;;;;;;7.50;5.68;;;14.50;90.30;;;;;;6217826;23;20008;-76
2023/03/14 02:23:35;;;;;;;9.77;5.63;;;14.50;90.20;;;;;;6245699;23;20000;-76
2023/03/14 02:26:11;;;;;;;11.45;5.38;;;14.50;90.20;;;;;;6218044;23;20000;-76
2023/03/14 02:28:36;;;;;;;12.85;6.32;;;14.50;90.10;;;;;;6245210;23;20008;-76
2023/03/14 02:31:02;;;;;;;7.90;5.07;;;14.50;90.20;;;;;;6244119;23;20000;-76
2023/03/14 02:33:28;;;;;;;8.48;4.85;;;14.50;90.20;;;;;;6245476;23;20008;-76
2023/03/14 02:36:01;;;;;;;8.07;4.60;;;14.50;90.20;;;;;;6217618;23;20004;-76
2023/03/14 02:38:55;;;;;;;13.15;6.28;;;14.50;90.20;;;;;;6245203;23;20311;-76
2023/03/14 02:41:21;;;;;;;9.23;5.13;;;14.50;90.30;;;;;;6245679;23;20054;-76
2023/03/14 02:43:47;;;;;;;9.55;5.75;;;14.50;90.20;;;;;;6247186;23;20008;-76
2023/03/14 02:46:16;;;;;;;9.07;5.50;;;14.50;90.20;;;;;;6246839;23;20399;-75
2023/03/14 02:49:07;;;;;;;12.52;6.22;;;14.50;90.20;;;;;;6246912;23;19997;-75
2023/03/14 02:51:34;;;;;;;10.32;6.25;;;14.40;90.40;;;;;;6229611;23;20004;-76
2023/03/14 02:54:00;;;;;;;10.18;6.43;;;14.40;90.20;;;;;;6247339;23;20027;-75
2023/03/14 02:56:25;;;;;;;11.90;6.00;;;14.40;90.30;;;;;;6246614;23;20027;-75
2023/03/14 02:58:51;;;;;;;9.18;5.57;;;14.40;90.30;;;;;;6246107;23;20023;-75
2023/03/14 03:01:17;;;;;;;11.38;6.07;;;14.40;90.30;;;;;;6245613;23;20047;-76
2023/03/14 03:03:42;;;;;;;9.82;5.68;;;14.40;90.30;;;;;;6247206;23;20000;-76
2023/03/14 03:06:08;;;;;;;11.43;6.15;;;14.50;90.30;;;;;;6246720;23;20001;-75
2023/03/14 03:08:34;;;;;;;8.95;5.30;;;14.50;90.30;;;;;;6246642;23;20076;-75
2023/03/14 03:11:00;;;;;;;8.90;6.55;;;14.50;90.30;;;;;;6246788;23;20024;-75
2023/03/14 03:13:26;;;;;;;7.32;5.03;;;14.50;90.30;;;;;;6247389;23;20375;-76
2023/03/14 03:15:52;;;;;;;7.97;5.65;;;14.50;90.40;;;;;;6246690;23;20027;-76
2023/03/14 03:18:18;;;;;;;8.75;5.15;;;14.50;90.40;;;;;;6246621;23;20012;-76
2023/03/14 03:20:44;;;;;;;7.65;5.35;;;14.40;90.40;;;;;;6246002;23;20011;-76
2023/03/14 03:23:10;;;;;;;10.63;5.30;;;14.40;90.40;;;;;;6246100;23;20010;-76
2023/03/14 03:25:35;;;;;;;9.90;5.47;;;14.40;90.60;;;;;;6246304;23;20015;-76
2023/03/14 03:28:01;;;;;;;8.65;6.22;;;14.40;90.50;;;;;;6246506;23;20063;-76
2023/03/14 03:30:27;;;;;;;10.95;6.03;;;14.40;90.60;;;;;;6246067;23;20054;-76
2023/03/14 03:32:53;;;;;;;8.25;5.55;;;14.40;90.50;;;;;;6219828;23;20012;-77
2023/03/14 03:35:19;;;;;;;10.90;6.03;;;14.40;90.60;;;;;;6246619;23;20012;-76
2023/03/14 03:37:44;;;;;;;9.07;5.88;;;14.40;90.50;;;;;;6246922;23;20401;-76
2023/03/14 03:40:10;;;;;;;13.10;6.50;;;14.40;90.30;;;;;;6246288;23;20004;-76
2023/03/14 03:42:36;;;;;;;9.00;5.43;;;14.40;90.50;;;;;;6246974;23;20004;-75
2023/03/14 03:45:03;;;;;;;8.82;5.65;;;14.40;90.50;;;;;;6245994;23;20004;-76
2023/03/14 03:47:30;;;;;;;9.23;5.85;;;14.50;90.60;;;;;;6246905;23;20063;-76
2023/03/14 03:49:56;;;;;;;8.43;6.28;;;14.40;90.60;;;;;;6246004;23;20027;-76
2023/03/14 03:52:22;;;;;;;11.27;5.82;;;14.40;90.50;;;;;;6219397;23;20004;-76
2023/03/14 03:54:47;;;;;;;9.90;5.82;;;14.40;90.60;;;;;;6245990;23;20008;-76
2023/03/14 03:57:13;;;;;;;11.75;7.07;;;14.40;90.60;;;;;;6247015;23;20012;-76
2023/03/14 03:59:40;;;;;;;9.82;6.68;;;14.40;90.60;;;;;;6245793;23;20012;-76
2023/03/14 04:02:06;;;;;;;9.10;6.13;;;14.40;90.70;;;;;;6246224;23;20364;-76
2023/03/14 04:04:31;;;;;;;11.05;6.53;;;14.40;90.70;;;;;;6246624;23;20024;-75
2023/03/14 04:06:57;;;;;;;9.90;6.30;;;14.40;90.70;;;;;;6246379;23;20000;-75
2023/03/14 04:09:23;;;;;;;8.90;6.72;;;14.40;90.70;;;;;;6245577;23;20333;-75
2023/03/14 04:11:48;;;;;;;8.77;6.03;;;14.40;90.70;;;;;;6246804;23;20383;-75
2023/03/14 04:14:14;;;;;;;9.23;6.30;;;14.40;90.70;;;;;;6246338;23;20423;-75
2023/03/14 04:16:40;;;;;;;11.70;7.03;;;14.40;90.50;;;;;;6246199;23;20003;-76
2023/03/14 04:19:05;;;;;;;11.60;7.53;;;14.30;90.60;;;;;;6245435;23;20050;-75
2023/03/14 04:21:31;;;;;;;9.05;6.53;;;14.30;90.80;;;;;;6246173;23;20008;-76
2023/03/14 04:23:57;;;;;;;13.15;7.60;;;14.30;90.80;;;;;;6246103;23;20007;-76
2023/03/14 04:26:23;;;;;;;8.60;6.28;;;14.20;90.90;;;;;;6246272;23;19996;-76
2023/03/14 04:28:48;;;;;;;10.75;6.25;;;14.30;90.90;;;;;;6245131;23;20016;-76
2023/03/14 04:31:18;;;;;;;8.95;6.00;;;14.20;90.90;;;;;;6245047;23;20007;-76
2023/03/14 04:33:43;;;;;;;8.57;6.22;;;14.20;90.90;;;;;;6245837;23;20353;-76
2023/03/14 04:36:10;;;;;;;11.98;6.57;;;14.20;90.90;;;;;;6245656;23;20006;-76
2023/03/14 04:38:36;;;;;;;15.50;6.75;;;14.20;91.00;;;;;;6245977;23;20083;-76
2023/03/14 04:41:02;;;;;;;8.77;5.45;;;14.20;90.90;;;;;;6245808;23;20036;-76
2023/03/14 04:43:28;;;;;;;7.68;5.15;;;14.20;91.00;;;;;;6245692;23;20035;-77
2023/03/14 04:45:54;;;;;;;10.27;6.57;;;14.20;91.00;;;;;;6245455;23;20063;-76
2023/03/14 04:48:20;;;;;;;9.68;5.60;;;14.20;90.90;;;;;;6245273;23;20003;-76
2023/03/14 04:50:49;;;;;;;11.02;5.35;;;14.20;91.00;;;;;;6244986;23;20435;-76
2023/03/14 04:53:16;;;;;;;7.78;4.95;;;14.20;91.00;;;;;;6245275;23;20004;-76
2023/03/14 04:55:42;;;;;;;8.88;5.18;;;14.20;90.90;;;;;;6219101;23;20011;-76
2023/03/14 04:58:08;;;;;;;7.80;5.10;;;14.10;91.20;;;;;;6246089;23;20000;-76
2023/03/14 05:00:33;;;;;;;10.38;5.50;;;14.10;91.00;;;;;;6245385;23;20035;-76
2023/03/14 05:02:59;;;;;;;7.30;5.35;;;14.10;91.00;;;;;;6245099;23;20134;-76
2023/03/14 05:05:25;;;;;;;8.15;5.20;;;14.00;91.30;;;;;;6246265;23;20051;-76
2023/03/14 05:07:51;;;;;;;9.60;5.13;;;14.00;91.10;;;;;;6244703;23;20062;-76
2023/03/14 05:10:16;;;;;;;11.90;5.35;;;14.00;91.20;;;;;;6246068;23;20411;-76
2023/03/14 05:12:42;;;;;;;11.65;5.15;;;14.10;91.20;;;;;;6245820;23;20058;-75
2023/03/14 05:15:08;;;;;;;7.53;4.43;;;14.00;91.20;;;;;;6245991;23;20414;-76
2023/03/14 05:17:34;;;;;;;9.05;5.55;;;14.00;91.20;;;;;;6218073;23;20419;-76
2023/03/14 05:20:00;;;;;;;8.32;4.75;;;;;;;;;;6246012;23;20000;-78
2023/03/14 05:22:26;;;;;;;9.02;5.68;;;14.00;91.00;;;;;;6245475;23;20000;-79
2023/03/14 05:24:56;;;;;;;6.55;4.20;;;14.00;91.20;;;;;;6245276;23;20077;-79
2023/03/14 05:27:22;;;;;;;6.20;4.15;;;14.00;91.30;;;;;;6245176;23;20453;-79
2023/03/14 05:29:48;;;;;;;8.30;4.68;;;14.00;91.20;;;;;;6245224;23;20000;-78
2023/03/14 05:32:14;;;;;;;6.40;4.60;;;;;;;;;;6218633;23;20000;-79
2023/03/14 05:34:39;;;;;;;7.05;4.30;;;14.00;91.10;;;;;;6218147;23;20377;-79
2023/03/14 05:37:05;;;;;;;10.13;5.22;;;14.00;91.30;;;;;;6245356;23;20029;-79
2023/03/14 05:39:31;;;;;;;9.30;4.93;;;14.00;91.20;;;;;;6244779;23;20071;-79
2023/03/14 05:41:56;;;;;;;7.03;4.75;;;14.00;91.30;;;;;;6245731;23;20000;-79
2023/03/14 05:44:23;;;;;;;8.13;4.85;;;;;;;;;;6245515;23;19996;-82
2023/03/14 05:46:48;;;;;;;15.75;6.18;;;14.00;91.30;;;;;;6245195;23;20019;-83
2023/03/14 05:49:14;;;;;;;9.73;5.85;;;13.90;91.40;;;;;;6245295;23;20404;-83
2023/03/14 05:51:40;;;;;;;6.85;5.20;;;13.90;91.50;;;;;;6245733;23;20350;-83
2023/03/14 05:54:05;;;;;;;8.80;4.93;;;13.80;91.70;;;;;;6244555;23;20375;-83
2023/03/14 05:56:32;;;;;;;10.02;6.57;;;13.80;91.30;;;;;;6245960;23;20007;-83
2023/03/14 05:58:57;;;;;;;8.05;4.65;;;13.80;91.70;;;;;;6244495;23;20099;-83
2023/03/14 06:01:23;;;;;;;7.38;4.85;;;13.80;91.60;;;;;;6244818;23;20024;-82
2023/03/14 06:03:49;;;;;;;9.82;5.20;;;13.70;91.30;;;;;;6245234;23;20004;-76
2023/03/14 06:06:16;;;;;;;8.52;5.00;;;13.80;91.60;;;;;;6244007;23;20007;-76
2023/03/14 06:08:42;;;;;;;10.23;5.47;;;13.80;91.70;;;;;;6245165;23;19997;-76
2023/03/14 06:11:08;;;;;;;8.02;4.85;;;13.80;91.90;;;;;;6244777;23;20046;-76
2023/03/14 06:13:33;;;;;;;10.95;5.63;;;13.80;91.90;;;;;;6243971;23;20004;-79
2023/03/14 06:15:59;;;;;;;12.77;5.25;;;13.80;91.70;;;;;;6246167;23;20027;-80
2023/03/14 06:18:25;;;;;;;11.40;5.35;;;13.80;91.80;;;;;;6246684;23;20375;-79
2023/03/14 06:20:54;;;;;;;9.63;5.25;;;13.80;91.90;;;;;;6246677;23;20011;-79
2023/03/14 06:23:19;;;;;;;13.10;7.15;;;13.80;91.90;;;;;;6246438;23;20091;-79
2023/03/14 06:25:45;;;;;;;11.75;5.55;;;13.70;92.00;;;;;;6246237;23;20073;-79
2023/03/14 06:28:11;;;;;;;12.57;6.70;;;13.70;92.00;;;;;;6246093;23;20016;-78
2023/03/14 06:30:36;;;;;;;11.95;6.50;;;13.70;92.20;;;;;;6247339;23;19996;-78
2023/03/14 06:33:02;;;;;;;11.38;6.45;;;13.80;92.10;;;;;;6247325;23;20004;-79
2023/03/14 06:35:27;;;;;;;10.23;6.45;;;13.80;92.00;;;;;;6246677;23;20008;-79
2023/03/14 06:37:53;;;;;;;11.95;6.53;;;13.80;92.10;;;;;;6247246;23;20000;-78
2023/03/14 06:40:19;;;;;;;13.98;6.13;;;13.80;92.10;;;;;;6246918;23;20491;-79
2023/03/14 06:42:45;;;;;;;11.60;6.25;;;13.90;92.00;;;;;;6246839;23;20004;-78
2023/03/14 06:45:11;;;;;;;10.77;5.80;;;13.90;92.00;;;;;;6246720;23;20007;-79
2023/03/14 06:47:38;;;;;;;11.77;5.95;;;14.00;91.90;;;;;;6246089;23;20003;-79
2023/03/14 06:50:05;;;;;;;9.88;6.32;;;14.00;91.80;;;;;;6245924;23;20000;-79
2023/03/14 06:52:31;;;;;;;9.50;6.25;;;14.00;91.80;;;;;;6247404;23;20007;-79
2023/03/14 06:54:56;;;;;;;10.48;5.97;;;14.10;91.80;;;;;;6246513;23;20027;-79
2023/03/14 06:57:22;;;;;;;10.57;5.38;;;14.10;91.70;;;;;;6244883;23;20000;-79
2023/03/14 06:59:47;;;;;;;14.82;6.68;;;14.10;91.60;;;;;;6245830;23;20426;-80
2023/03/14 07:02:13;;;;;;;11.05;6.55;;;14.10;91.60;;;;;;6246113;23;20031;-79
2023/03/14 07:04:39;;;;;;;14.75;7.20;;;14.10;91.70;;;;;;6245958;23;19996;-79
2023/03/14 07:07:05;;;;;;;15.20;7.43;;;14.00;91.80;;;;;;6245324;23;19996;-80
2023/03/14 07:09:31;;;;;;;13.68;6.97;;;13.90;91.90;;;;;;6246882;23;20059;-79
2023/03/14 07:11:57;;;;;;;14.60;6.53;;;13.70;92.20;;;;;;6246426;23;20001;-83
2023/03/14 07:14:23;;;;;;;11.07;6.43;;;13.60;92.60;;;;;;6246666;23;20091;-87
2023/03/14 07:16:49;;;;;;;12.45;6.97;;;13.60;92.50;;;;;;6246920;23;20000;-83
2023/03/14 07:19:14;;;;;;;15.13;8.07;;;13.50;92.70;;;;;;6246570;23;20022;-83
2023/03/14 07:21:40;;;;;;;17.30;7.68;;;13.40;92.90;;;;;;6219394;23;20054;-81
2023/03/14 07:24:06;;;;;;;11.73;6.25;;;13.40;92.80;;;;;;6246901;23;20004;-83
2023/03/14 07:26:31;;;;;;;12.63;6.05;;;13.40;93.50;;;;;;6247205;23;20095;-88
2023/03/14 07:28:57;;;;;;;17.80;7.13;;;13.30;93.60;;;;;;6246071;23;20012;-88
2023/03/14 07:31:23;;;;;;;13.45;6.07;;;13.30;93.80;;;;;;6245862;23;20004;-86
2023/03/14 07:33:49;;;;;;;15.38;6.00;;;13.30;93.80;;;;;;6245796;23;20095;-78
2023/03/14 07:36:15;;;;;;;12.85;6.55;;;13.40;93.70;;;;;;6246202;23;20032;-78
2023/03/14 07:38:41;;;;;;;8.23;5.05;;;13.40;93.80;;;;;;6246425;23;20003;-87
2023/03/14 07:41:06;;;;;;;12.80;7.03;;;13.50;93.40;;;;;;6247315;23;20004;-86
2023/03/14 07:43:32;;;;;;;10.63;5.88;;;13.50;93.70;;;;;;6219777;23;20095;-86
2023/03/14 07:45:58;;;;;;;13.13;6.93;;;13.40;93.80;;;;;;6246967;23;20098;-86
2023/03/14 07:48:26;;;;;;;8.90;4.97;;;13.30;94.20;;;;;;6246595;23;20071;-86
2023/03/14 07:50:53;;;;;;;9.90;5.10;;;13.40;93.80;;;;;;6246882;23;20003;-86
2023/03/14 07:53:19;;;;;;;13.90;5.68;;;13.50;93.70;;;;;;6246067;23;20007;-86
2023/03/14 07:55:45;;;;;;;10.35;5.30;;;13.60;93.60;;;;;;6246523;23;20000;-86
2023/03/14 07:58:11;;;;;;;10.50;6.28;;;13.70;93.70;;;;;;6246752;23;20072;-85
2023/03/14 08:00:37;;;;;;;11.68;5.85;;;13.70;93.70;;;;;;6246448;23;20004;-85
2023/03/14 08:03:03;;;;;;;13.35;4.95;;;;;;;;;;6245313;23;20004;-85
2023/03/14 08:05:29;;;;;;;11.98;6.13;;;13.80;93.30;;;;;;6217761;23;20039;-85
2023/03/14 08:07:55;;;;;;;12.07;5.50;;;13.80;93.60;;;;;;6246702;23;19996;-78
2023/03/14 08:10:21;;;;;;;11.18;6.05;;;13.90;93.50;;;;;;6246766;23;20003;-79
2023/03/14 08:12:51;;;;;;;11.93;5.97;;;14.00;93.50;;;;;;6246365;23;20083;-79
2023/03/14 08:15:16;;;;;;;13.10;5.38;;;14.00;93.60;;;;;;6246033;23;20004;-78
2023/03/14 08:17:42;;;;;;;11.18;5.80;;;14.00;93.50;;;;;;6246694;23;20106;-79
2023/03/14 08:20:10;;;;;;;11.15;6.00;;;14.00;93.30;;;;;;6247082;23;20011;-81
2023/03/14 08:22:36;;;;;;;11.02;5.35;;;14.10;93.40;;;;;;6245921;23;20058;-78
2023/03/14 08:25:03;;;;;;;11.18;5.60;;;14.00;93.40;;;;;;6245312;23;20454;-78
2023/03/14 08:27:28;;;;;;;10.80;6.15;;;14.80;94.00;;;;;;6246093;23;20009;-78
2023/03/14 08:29:54;;;;;;;10.07;6.25;;;13.90;93.60;;;;;;6246350;23;20126;-78
2023/03/14 08:32:20;;;;;;;13.35;6.68;;;14.00;93.50;;;;;;6246656;23;20419;-78
2023/03/14 08:34:46;;;;;;;13.85;6.65;;;14.00;93.80;;;;;;6246649;23;20322;-78
2023/03/14 08:37:11;;;;;;;14.52;7.43;;;14.00;93.60;;;;;;6246567;23;20000;-78
2023/03/14 08:39:37;;;;;;;11.00;6.00;;;14.10;93.50;;;;;;6246254;22;20075;-79
2023/03/14 08:42:03;;;;;;;10.32;6.47;;;14.10;93.50;;;;;;6246335;23;20035;-78
2023/03/14 08:44:29;;;;;;;9.52;5.68;;;14.10;93.50;;;;;;6246511;23;19996;-78
2023/03/14 08:46:55;;;;;;;12.70;6.28;;;14.20;93.40;;;;;;6245831;23;20015;-78
2023/03/14 08:49:21;;;;;;;10.18;6.55;;;14.20;93.40;;;;;;6246420;23;20399;-78
2023/03/14 08:51:46;;;;;;;16.65;6.35;;;14.20;93.40;;;;;;6246593;23;20003;-78
2023/03/14 08:54:12;;;;;;;13.65;7.10;;;14.20;93.70;;;;;;6245399;23;20008;-78
2023/03/14 08:56:38;;;;;;;13.95;7.10;;;14.30;93.50;;;;;;6219031;23;20004;-79
2023/03/14 08:59:05;;;;;;;16.77;7.20;;;14.30;93.40;;;;;;6246237;23;20465;-80
2023/03/14 09:01:30;;;;;;;8.82;5.63;;;14.20;93.30;;;;;;6246434;23;20004;-80
2023/03/14 09:03:56;;;;;;;17.40;7.43;;;14.20;93.30;;;;;;6246216;23;20014;-80
2023/03/14 09:06:22;;;;;;;10.90;5.97;;;14.20;93.50;;;;;;6246111;23;20542;-81
2023/03/14 09:08:47;;;;;;;10.35;6.18;;;14.20;93.20;;;;;;6220055;23;20412;-80
2023/03/14 09:11:14;;;;;;;10.43;5.70;;;14.20;93.40;;;;;;6245803;23;20001;-80
2023/03/14 09:13:40;;;;;;;12.90;6.85;;;14.20;93.30;;;;;;6219282;23;20026;-80
2023/03/14 09:16:07;;;;;;;11.18;5.80;;;14.30;93.50;;;;;;6245917;23;20027;-80
2023/03/14 09:18:32;;;;;;;12.05;5.25;;;14.30;93.50;;;;;;6246231;23;20073;-80
2023/03/14 09:20:58;;;;;;;13.30;5.93;;;14.40;93.20;;;;;;6246256;23;20422;-80
2023/03/14 09:23:24;;;;;;;11.57;5.70;;;14.30;93.40;;;;;;6245813;23;20004;-80
2023/03/14 09:25:54;;;;;;;8.38;5.25;;;14.40;93.40;;;;;;6245862;23;20001;-80
2023/03/14 09:28:19;;;;;;;9.57;5.00;;;14.40;93.30;;;;;;6245905;23;20492;-80
2023/03/14 09:30:45;;;;;;;8.32;5.13;;;14.40;93.30;;;;;;6219281;23;20004;-80
2023/03/14 09:33:11;;;;;;;9.68;5.13;;;14.40;93.30;;;;;;6245825;23;20024;-80
2023/03/14 09:35:36;;;;;;;10.23;5.18;;;14.50;93.20;;;;;;6245695;23;20050;-80
2023/03/14 09:38:02;;;;;;;10.75;5.00;;;14.40;93.30;;;;;;6246188;23;20000;-80
2023/03/14 09:40:34;;;;;;;9.70;5.03;;;14.40;93.20;;;;;;6245955;23;20004;-80
2023/03/14 09:43:00;;;;;;;11.40;5.05;;;14.40;93.30;;;;;;6245980;23;20007;-80
2023/03/14 09:45:36;;;;;;;10.00;4.38;;;14.40;93.30;;;;;;6245707;23;20004;-81
2023/03/14 09:48:03;;;;;;;9.95;4.55;;;14.40;93.30;;;;;;6246137;23;20023;-80
2023/03/14 09:50:48;;;;;;;9.55;4.65;;;14.40;93.30;;;;;;6245563;23;20074;-80
2023/03/14 09:53:20;;;;;;;11.15;4.57;;;14.50;93.40;;;;;;6245521;23;20011;-80
2023/03/14 09:55:49;;;;;;;10.55;4.40;;;14.50;93.40;;;;;;6245762;23;20338;-81
2023/03/14 09:58:19;;;;;;;11.35;4.75;;;14.50;93.30;;;;;;6245849;23;20008;-79
2023/03/14 10:00:45;;;;;;;11.27;4.65;;;14.60;93.30;;;;;;6246066;23;20034;-80
2023/03/14 10:03:11;;;;;;;12.15;5.15;;;14.60;93.30;;;;;;6240119;23;20079;-80
2023/03/14 10:05:37;;;;;;;10.95;4.28;;;14.70;93.20;;;;;;6245536;23;20003;-80
2023/03/14 10:08:03;;;;;;;13.52;4.82;;;14.60;93.20;;;;;;6218605;23;19996;-80
2023/03/14 10:10:29;;;;;;;13.68;4.80;;;14.60;93.10;;;;;;6218178;23;20403;-80
2023/03/14 10:12:57;;;;;;;11.10;4.22;;;14.50;93.30;;;;;;6245347;23;20000;-84
2023/03/14 10:15:26;;;;;;;13.80;5.25;;;14.50;93.40;;;;;;6245290;23;20007;-84
2023/03/14 10:17:52;;;;;;;11.77;4.75;;;14.50;93.30;;;;;;6245465;23;20007;-83
2023/03/14 10:20:32;;;;;;;10.15;4.15;;;14.60;93.30;;;;;;6245896;23;20303;-84
2023/03/14 10:23:05;;;;;;;9.57;3.83;;;14.60;93.20;;;;;;6245437;23;20000;-84
2023/03/14 10:25:36;;;;;;;9.75;4.30;;;14.60;93.20;;;;;;6245898;23;20000;-84
2023/03/14 10:28:04;;;;;;;8.95;3.97;;;14.60;93.20;;;;;;6245031;23;20019;-83
2023/03/14 10:30:48;;;;;;;17.75;5.70;;;14.60;93.20;;;;;;6245662;23;20046;-84
2023/03/14 10:33:27;;;;;;;16.92;6.00;;;14.50;93.30;;;;;;6218235;23;20031;-84
2023/03/14 10:36:06;;;;;;;13.23;4.97;;;14.40;93.60;;;;;;6245712;23;20000;-84
2023/03/14 10:38:35;;;;;;;12.10;4.80;;;14.20;93.90;;;;;;6239951;23;20618;-84
2023/03/14 10:41:01;;;;;;;11.35;4.75;;;14.20;94.10;;;;;;6244475;23;20004;-84
2023/03/14 10:43:35;;;;;;;11.77;3.92;;;14.30;93.90;;;;;;6244376;23;20004;-86
2023/03/14 10:46:17;;;;;;;11.00;4.63;;;14.30;93.80;;;;;;6245021;23;20004;-81
2023/03/14 10:48:45;;;;;;;11.48;4.53;;;14.30;94.00;;;;;;6244405;23;19997;-80
2023/03/14 10:51:18;;;;;;;13.63;4.75;;;14.30;94.10;;;;;;6244934;23;20434;-81
2023/03/14 10:53:59;;;;;;;17.15;5.25;;;14.30;94.00;;;;;;6244886;23;20046;-79
2023/03/14 10:56:26;;;;;;;12.50;4.30;;;14.20;94.20;;;;;;6244905;23;20075;-80
2023/03/14 10:58:56;;;;;;;12.02;4.68;;;14.20;94.40;;;;;;6244934;23;20032;-80
2023/03/14 11:02:06;;;;;;;14.80;4.55;;;14.20;94.40;;;;;;6245111;23;20015;-80
2023/03/14 11:04:58;;;;;;;11.98;3.78;;;14.10;94.50;;;;;;6095099;23;20022;-81
2023/03/14 11:07:35;;;;;;;13.73;4.30;;;14.20;94.30;;;;;;6246961;23;20008;-80
2023/03/14 11:10:28;;;;;;;9.85;3.65;;;14.30;94.40;;;;;;6220163;23;20004;-87
2023/03/14 11:13:15;;;;;;;9.73;4.15;;;14.30;94.10;;;;;;6245345;23;20079;-90
2023/03/14 11:15:51;;;;;;;13.20;4.22;;;14.50;94.00;;;;;;6246780;23;20000;-80
2023/03/14 11:18:41;;;;;;;17.75;3.90;;;14.40;93.80;;;;;;6210032;23;20314;-79
2023/03/14 11:21:13;;;;;;;;;;;14.50;93.80;;;;;;6244209;23;20091;-81
2023/03/14 11:24:19;;;;;;;9.63;3.50;;;14.50;94.00;;;;;;6232737;23;19945;-81
2023/03/14 11:27:17;;;;;;;12.50;4.20;;;14.50;94.00;;;;;;6215165;23;20001;-85
2023/03/14 11:29:55;;;;;;;11.68;3.58;;;14.40;93.80;;;;;;6243631;23;20065;-86
2023/03/14 11:32:54;;;;;;;12.10;4.47;;;14.40;93.80;;;;;;6243333;23;20011;-86
2023/03/14 11:35:26;;;;;;;11.10;4.28;;;14.40;93.80;;;;;;6241312;23;20008;-81
2023/03/14 11:38:18;;;;;;;17.35;4.25;;;14.20;94.00;;;;;;6245954;23;20046;-81
2023/03/14 11:40:46;;;;;;;10.40;3.22;;;14.10;94.30;;;;;;6245944;23;20000;-82
2023/03/14 11:43:19;;;;;;;8.70;3.03;;;14.10;94.20;;;;;;6246135;23;20000;-81
2023/03/14 11:45:48;;;;;;;9.73;3.22;;;14.10;94.00;;;;;;6246536;23;20003;-81
2023/03/14 11:48:38;;;;;;;13.75;3.45;;;14.30;94.00;;;;;;6246781;23;20409;-81
2023/03/14 11:51:11;;;;;;;16.17;3.50;;;14.40;93.70;;;;;;6243593;23;20057;-87
2023/03/14 11:53:50;;;;;;;11.98;2.65;;;14.40;93.60;;;;;;6243611;23;20004;-85
2023/03/14 11:56:56;;;;;;;9.60;2.90;;;14.40;93.60;;;;;;6244290;23;20024;-86
2023/03/14 11:59:37;;;;;;;8.93;2.22;;;14.40;93.50;;;;;;6093316;23;20006;-85
2023/03/14 12:02:27;;;;;;;10.95;2.83;;;14.40;93.50;;;;;;6091577;23;20081;-85
2023/03/14 12:05:14;;;;;;;14.95;3.78;;;14.40;93.60;;;;;;6208543;23;20000;-85
2023/03/14 12:07:57;;;;;;;8.90;3.03;;;14.20;93.60;;;;;;6244413;23;19997;-86
2023/03/14 12:10:23;;;;;;;7.38;2.60;;;14.20;93.70;;;;;;6245410;23;20020;-86
2023/03/14 12:12:49;;;;;;;11.10;3.28;;;14.10;93.90;;;;;;6245021;23;20027;-85
2023/03/14 12:15:22;;;;;;;10.80;2.40;;;14.20;93.80;;;;;;6245736;23;20028;-89
2023/03/14 12:17:54;;;;;;;10.25;2.88;;;14.30;93.70;;;;;;6246460;23;20015;-89
2023/03/14 12:20:22;;;;;;;7.30;2.88;;;14.40;93.70;;;;;;6219257;23;20308;-89
2023/03/14 12:23:01;;;;;;;8.98;3.30;;;14.50;93.70;;;;;;6219519;23;20004;-89
2023/03/14 12:25:30;;;;;;;9.13;3.13;;;14.50;93.70;;;;;;6219477;23;20011;-88
2023/03/14 12:27:56;;;;;;;10.32;3.00;;;14.50;93.80;;;;;;6245489;23;20008;-88
2023/03/14 12:30:29;;;;;;;8.48;2.55;;;14.60;93.90;;;;;;6246442;23;20000;-89
2023/03/14 12:33:20;;;;;;;7.88;2.50;;;14.70;94.00;;;;;;6246064;23;20004;-89
2023/03/14 12:35:50;;;;;;;7.97;3.15;;;14.70;94.20;;;;;;6245338;23;20007;-84
2023/03/14 12:38:35;;;;;;;11.85;2.80;;;14.70;94.00;;;;;;6242086;23;20015;-86
2023/03/14 12:41:20;;;;;;;8.85;2.80;;;14.70;94.10;;;;;;6244727;23;20411;-85
2023/03/14 12:43:46;;;;;;;7.05;2.60;;;14.80;94.20;;;;;;6244988;23;20070;-85
2023/03/14 12:46:16;;;;;;;7.72;3.17;;;14.90;94.00;;;;;;6243618;23;20067;-83
2023/03/14 12:48:45;;;;;;;10.95;3.05;;;15.00;94.10;;;;;;6244596;23;20007;-83
2023/03/14 12:51:20;;;;;;;7.95;2.60;;;15.00;94.20;;;;;;6244758;23;20075;-83